Time;durP1;ratioP1;P1;durP2;ratioP2;P2;SDS_P1;SDS_P2;PMS_P1;PMS_P2;Temp;Humidity;BMP_temperature;BMP_pressure;BME280_temperature;BME280_humidity;BME280_pressure;Samples;Min_cycle;Max_cycle;Signal;HPM_P1;HPM_P2
2022/06/26 00:01:28;;;;;;;9.90;8.87;;;19.40;83.00;;;;;;5072250;28;20174;-73
2022/06/26 00:03:53;;;;;;;10.53;9.40;;;19.40;79.70;;;;;;5073157;28;20183;-72
2022/06/26 00:06:19;;;;;;;11.03;9.63;;;19.40;81.80;;;;;;5073758;28;20273;-73
2022/06/26 00:08:45;;;;;;;12.83;10.53;;;19.40;83.30;;;;;;5072890;28;20170;-72
2022/06/26 00:11:10;;;;;;;15.70;10.43;;;19.60;81.40;;;;;;5072433;28;20454;-71
2022/06/26 00:13:36;;;;;;;13.77;11.17;;;19.60;84.40;;;;;;5072439;28;20202;-74
2022/06/26 00:16:02;;;;;;;20.03;10.43;;;19.40;89.50;;;;;;5072076;28;20190;-74
2022/06/26 00:18:27;;;;;;;12.97;10.73;;;19.40;92.90;;;;;;5072506;28;20170;-72
2022/06/26 00:20:53;;;;;;;12.33;9.97;;;19.40;91.60;;;;;;5071940;28;20166;-73
2022/06/26 00:23:18;;;;;;;12.40;10.20;;;19.40;91.20;;;;;;5072395;28;20178;-73
2022/06/26 00:25:44;;;;;;;19.50;11.63;;;19.40;92.10;;;;;;5072185;28;20271;-73
2022/06/26 00:28:09;;;;;;;15.87;11.80;;;19.30;92.10;;;;;;5072033;28;20587;-72
2022/06/26 00:30:35;;;;;;;16.53;10.40;;;19.20;95.40;;;;;;5072255;28;20182;-71
2022/06/26 00:33:01;;;;;;;14.60;12.27;;;19.10;99.90;;;;;;5071811;28;20205;-71
2022/06/26 00:35:26;;;;;;;16.37;11.70;;;19.20;97.70;;;;;;5072366;28;20200;-71
2022/06/26 00:37:52;;;;;;;16.83;11.97;;;19.10;98.60;;;;;;5072531;28;20541;-72
2022/06/26 00:40:17;;;;;;;18.43;12.67;;;19.10;99.30;;;;;;5072699;28;20198;-71
2022/06/26 00:42:43;;;;;;;16.73;12.33;;;19.10;99.90;;;;;;5071717;28;20174;-72
2022/06/26 00:45:09;;;;;;;16.43;12.00;;;19.10;99.60;;;;;;5071756;28;20526;-71
2022/06/26 00:47:35;;;;;;;11.50;9.50;;;19.00;98.90;;;;;;5071966;28;20221;-71
2022/06/26 00:50:01;;;;;;;15.60;11.67;;;18.80;99.90;;;;;;5071877;28;20416;-72
2022/06/26 00:52:27;;;;;;;14.80;11.97;;;18.70;99.90;;;;;;5071820;28;20504;-72
2022/06/26 00:54:54;;;;;;;13.30;11.67;;;18.70;99.90;;;;;;5072170;28;20166;-72
2022/06/26 00:57:21;;;;;;;13.37;10.57;;;18.60;99.90;;;;;;5072287;28;20424;-72
2022/06/26 00:59:48;;;;;;;16.40;11.50;;;18.50;99.90;;;;;;5072068;28;20408;-72
2022/06/26 01:02:13;;;;;;;15.60;10.83;;;18.40;99.90;;;;;;5071613;28;20412;-70
2022/06/26 01:04:39;;;;;;;15.90;11.80;;;18.40;99.90;;;;;;5071848;28;20419;-73
2022/06/26 01:07:05;;;;;;;14.97;11.73;;;18.50;99.90;;;;;;5071588;28;20467;-73
2022/06/26 01:09:32;;;;;;;16.80;11.80;;;18.70;99.90;;;;;;5071949;28;20416;-72
2022/06/26 01:11:57;;;;;;;24.20;13.10;;;18.60;99.90;;;;;;5071720;28;20455;-71
2022/06/26 01:14:24;;;;;;;16.23;12.30;;;18.60;99.90;;;;;;5072233;28;21105;-71
2022/06/26 01:16:50;;;;;;;17.40;13.20;;;18.60;99.90;;;;;;5054841;28;20198;-71
2022/06/26 01:19:17;;;;;;;19.17;12.93;;;18.60;99.90;;;;;;5072628;28;20488;-72
2022/06/26 01:21:43;;;;;;;18.53;13.03;;;18.50;99.90;;;;;;5072172;28;20820;-72
2022/06/26 01:24:09;;;;;;;15.43;12.50;;;18.40;99.90;;;;;;5072486;28;20416;-72
2022/06/26 01:26:37;;;;;;;19.00;13.70;;;18.40;99.90;;;;;;5072604;28;20194;-72
2022/06/26 01:29:03;;;;;;;14.93;12.13;;;18.40;99.90;;;;;;5072576;28;20662;-71
2022/06/26 01:31:32;;;;;;;18.43;13.40;;;18.40;99.90;;;;;;5071865;28;20883;-71
2022/06/26 01:33:58;;;;;;;17.70;13.47;;;18.40;99.90;;;;;;5071951;28;20471;-71
2022/06/26 01:36:24;;;;;;;19.87;13.10;;;18.30;99.90;;;;;;5072735;28;20444;-71
2022/06/26 01:38:50;;;;;;;20.23;14.90;;;18.30;99.90;;;;;;5071653;28;20429;-72
2022/06/26 01:41:15;;;;;;;17.07;12.90;;;18.20;99.90;;;;;;5074680;28;20224;-72
2022/06/26 01:43:41;;;;;;;22.00;13.67;;;18.10;99.90;;;;;;5075045;28;20236;-72
2022/06/26 01:46:07;;;;;;;19.13;14.60;;;18.00;99.90;;;;;;5074989;28;20667;-71
2022/06/26 01:48:34;;;;;;;15.80;13.27;;;18.00;99.90;;;;;;5075374;28;20174;-73
2022/06/26 01:51:01;;;;;;;17.80;13.80;;;17.90;99.90;;;;;;5075068;28;20420;-72
2022/06/26 01:53:27;;;;;;;18.20;13.80;;;17.80;99.90;;;;;;5074933;28;20543;-72
2022/06/26 01:55:53;;;;;;;20.23;14.13;;;17.90;99.90;;;;;;5075314;28;20431;-71
2022/06/26 01:58:19;;;;;;;17.70;13.50;;;17.90;99.90;;;;;;5075132;28;20412;-71
2022/06/26 02:00:47;;;;;;;17.70;12.80;;;17.90;99.90;;;;;;5075053;28;20512;-72
2022/06/26 02:03:14;;;;;;;16.20;12.47;;;18.00;99.90;;;;;;5074816;28;20174;-72
2022/06/26 02:05:40;;;;;;;15.83;12.43;;;18.00;99.90;;;;;;5074931;28;20398;-71
2022/06/26 02:08:06;;;;;;;15.50;12.00;;;18.10;99.90;;;;;;5075140;28;20755;-72
2022/06/26 02:16:01;;;;;;;21.40;15.10;;;18.20;99.90;;;;;;5074747;28;20431;-72
2022/06/26 02:18:27;;;;;;;30.20;14.90;;;18.20;99.90;;;;;;5074854;28;20719;-71
2022/06/26 02:20:53;;;;;;;22.73;14.33;;;18.20;99.90;;;;;;5074885;28;20415;-72
2022/06/26 02:23:18;;;;;;;20.20;14.50;;;18.30;99.90;;;;;;5074949;28;20416;-72
2022/06/26 02:25:44;;;;;;;22.57;14.87;;;18.30;99.90;;;;;;5074935;28;20221;-71
2022/06/26 02:28:10;;;;;;;20.57;15.07;;;18.30;99.90;;;;;;5074712;28;20174;-72
2022/06/26 02:30:36;;;;;;;22.83;14.80;;;18.20;99.90;;;;;;5074450;28;20174;-72
2022/06/26 02:33:02;;;;;;;15.43;12.73;;;18.20;99.90;;;;;;5074090;28;20225;-71
2022/06/26 02:35:28;;;;;;;19.43;15.00;;;18.10;99.90;;;;;;5073937;28;20408;-71
2022/06/26 02:37:54;;;;;;;19.07;14.40;;;18.00;99.90;;;;;;5074420;28;20898;-71
2022/06/26 02:40:22;;;;;;;19.77;14.43;;;17.90;99.90;;;;;;5074369;28;20479;-71
2022/06/26 02:42:48;;;;;;;24.60;14.53;;;17.90;99.90;;;;;;5073895;28;20383;-72
2022/06/26 02:45:14;;;;;;;29.90;15.43;;;17.90;99.90;;;;;;5073979;28;20422;-72
2022/06/26 02:47:40;;;;;;;21.47;14.67;;;17.80;99.90;;;;;;5073911;28;20953;-72
2022/06/26 02:50:07;;;;;;;24.43;16.13;;;17.80;99.90;;;;;;5074334;28;20447;-71
2022/06/26 02:52:33;;;;;;;29.73;16.03;;;17.80;99.90;;;;;;5073746;28;20452;-71
2022/06/26 02:55:00;;;;;;;23.63;16.77;;;17.60;99.90;;;;;;5075947;28;20404;-72
2022/06/26 02:57:26;;;;;;;21.07;14.53;;;17.60;99.90;;;;;;5076035;28;20447;-72
2022/06/26 02:59:52;;;;;;;23.60;15.83;;;17.50;99.90;;;;;;5075121;28;20412;-72
2022/06/26 03:02:17;;;;;;;20.70;14.37;;;17.50;99.90;;;;;;5056103;28;20547;-71
2022/06/26 03:04:43;;;;;;;26.03;17.03;;;17.50;99.90;;;;;;5074358;28;20284;-71
2022/06/26 03:07:09;;;;;;;22.67;16.80;;;17.50;99.90;;;;;;5073678;28;20194;-72
2022/06/26 03:09:34;;;;;;;25.20;15.80;;;17.40;99.90;;;;;;5056117;28;20639;-70
2022/06/26 03:12:00;;;;;;;32.47;17.30;;;17.40;99.90;;;;;;5074102;28;20662;-72
2022/06/26 03:14:26;;;;;;;24.37;16.80;;;17.40;99.90;;;;;;5074474;28;20173;-72
2022/06/26 03:16:51;;;;;;;26.50;16.40;;;17.40;99.90;;;;;;5075246;28;20275;-71
2022/06/26 03:19:17;;;;;;;20.50;14.53;;;17.50;99.90;;;;;;5077382;28;20253;-72
2022/06/26 03:21:43;;;;;;;26.00;16.43;;;17.60;99.90;;;;;;5077241;28;20177;-73
2022/06/26 03:24:08;;;;;;;22.20;15.80;;;17.70;99.90;;;;;;5077062;28;20281;-73
2022/06/26 03:26:36;;;;;;;23.67;16.57;;;17.70;99.90;;;;;;5057295;28;20194;-72
2022/06/26 03:29:04;;;;;;;26.10;15.87;;;17.80;99.90;;;;;;5073414;28;20169;-71
2022/06/26 03:31:30;;;;;;;27.20;14.60;;;17.90;99.90;;;;;;5072935;28;20416;-71
2022/06/26 03:33:56;;;;;;;20.77;14.27;;;18.00;99.90;;;;;;5072699;28;20460;-72
2022/06/26 03:36:23;;;;;;;18.97;14.70;;;18.10;99.90;;;;;;5054788;28;20840;-72
2022/06/26 03:38:49;;;;;;;17.30;13.63;;;18.20;99.90;;;;;;5072870;28;20403;-72
2022/06/26 03:41:14;;;;;;;18.37;13.07;;;18.30;99.90;;;;;;5072809;28;20404;-72
2022/06/26 03:43:40;;;;;;;18.47;12.93;;;18.30;99.90;;;;;;5072934;28;20851;-71
2022/06/26 03:46:06;;;;;;;16.13;12.60;;;18.40;99.90;;;;;;5072798;28;20206;-72
2022/06/26 03:48:32;;;;;;;21.70;12.97;;;18.40;99.60;;;;;;5072969;28;20170;-72
2022/06/26 03:50:58;;;;;;;23.03;12.43;;;18.50;98.60;;;;;;5072598;28;20452;-71
2022/06/26 03:53:24;;;;;;;13.63;11.70;;;18.50;99.10;;;;;;5072849;28;20894;-72
2022/06/26 03:55:50;;;;;;;14.40;11.30;;;18.60;98.70;;;;;;5072534;28;20209;-71
2022/06/26 03:58:16;;;;;;;16.10;11.37;;;18.60;94.40;;;;;;5072169;28;20500;-71
2022/06/26 04:00:41;;;;;;;14.83;10.03;;;18.70;93.50;;;;;;5072631;28;20735;-70
2022/06/26 04:03:07;;;;;;;17.33;10.20;;;18.60;92.80;;;;;;5071460;28;20178;-70
2022/06/26 04:05:34;;;;;;;21.53;10.93;;;18.70;91.20;;;;;;5071950;28;20661;-72
2022/06/26 04:08:00;;;;;;;16.70;9.97;;;18.70;90.80;;;;;;5072529;28;20977;-71
2022/06/26 04:10:27;;;;;;;14.00;10.93;;;18.80;90.20;;;;;;5072721;28;20494;-73
2022/06/26 04:12:52;;;;;;;10.40;8.50;;;18.80;90.80;;;;;;5072579;28;20844;-71
2022/06/26 04:15:18;;;;;;;18.83;10.30;;;18.90;89.20;;;;;;5072514;28;20390;-71
2022/06/26 04:17:44;;;;;;;17.40;10.93;;;18.80;91.40;;;;;;5073513;28;20182;-73
2022/06/26 04:20:10;;;;;;;16.20;11.37;;;18.80;89.50;;;;;;5074197;28;20210;-73
2022/06/26 04:22:36;;;;;;;18.23;10.53;;;18.80;83.90;;;;;;5081323;28;20174;-72
2022/06/26 04:25:03;;;;;;;13.13;8.17;;;18.80;82.90;;;;;;5075174;28;20416;-72
2022/06/26 04:27:29;;;;;;;14.50;8.67;;;18.80;79.30;;;;;;5073390;28;20482;-72
2022/06/26 04:29:54;;;;;;;12.40;9.13;;;18.80;79.40;;;;;;5072089;28;20404;-70
2022/06/26 04:32:20;;;;;;;10.90;7.20;;;18.70;79.90;;;;;;5071571;28;20202;-71
2022/06/26 04:34:45;;;;;;;16.47;6.80;;;18.70;77.10;;;;;;5072247;28;20266;-73
2022/06/26 04:37:11;;;;;;;8.50;6.10;;;18.60;75.10;;;;;;5072148;28;20226;-71
2022/06/26 04:39:36;;;;;;;9.20;5.53;;;18.60;71.00;;;;;;5072042;28;20166;-71
2022/06/26 04:42:02;;;;;;;6.63;5.80;;;18.70;69.20;;;;;;5071900;28;20178;-71
2022/06/26 04:44:27;;;;;;;6.17;5.57;;;18.70;69.10;;;;;;5054477;28;20189;-71
2022/06/26 04:46:53;;;;;;;6.60;5.50;;;18.60;68.70;;;;;;5071909;28;20216;-72
2022/06/26 04:49:20;;;;;;;6.10;4.60;;;18.70;67.70;;;;;;5072279;28;20227;-72
2022/06/26 04:51:45;;;;;;;5.53;4.83;;;18.60;68.30;;;;;;5071912;28;20167;-71
2022/06/26 04:54:11;;;;;;;8.80;4.73;;;18.50;68.60;;;;;;5071736;28;20532;-72
2022/06/26 04:56:38;;;;;;;7.13;4.90;;;18.50;69.80;;;;;;5071963;28;20285;-72
2022/06/26 04:59:04;;;;;;;6.93;4.10;;;18.50;71.70;;;;;;5071715;28;20488;-71
2022/06/26 05:01:30;;;;;;;4.17;3.77;;;18.50;69.10;;;;;;5071617;28;20883;-71
2022/06/26 05:03:57;;;;;;;8.03;3.10;;;18.50;69.00;;;;;;5053444;28;20437;-70
2022/06/26 05:06:22;;;;;;;4.43;3.13;;;18.30;61.90;;;;;;5071811;28;20411;-70
2022/06/26 05:08:48;;;;;;;9.07;2.97;;;18.20;59.50;;;;;;5071774;28;20405;-71
2022/06/26 05:11:14;;;;;;;4.30;2.67;;;18.20;57.70;;;;;;5071682;28;20207;-70
2022/06/26 05:13:39;;;;;;;3.37;2.70;;;18.00;57.80;;;;;;5071581;28;20206;-72
2022/06/26 05:16:06;;;;;;;4.67;3.37;;;17.90;60.70;;;;;;5074667;28;20186;-71
2022/06/26 05:18:32;;;;;;;3.70;3.07;;;17.80;62.10;;;;;;5075512;28;20178;-72
2022/06/26 05:20:57;;;;;;;3.43;2.40;;;17.70;63.70;;;;;;5074957;28;20415;-72
2022/06/26 05:23:24;;;;;;;5.63;3.13;;;17.80;63.00;;;;;;5075646;28;20416;-73
2022/06/26 05:25:53;;;;;;;8.30;2.73;;;17.90;61.80;;;;;;5057695;28;20258;-72
2022/06/26 05:28:19;;;;;;;3.70;2.50;;;18.10;60.50;;;;;;5075331;28;20751;-72
2022/06/26 05:30:44;;;;;;;5.30;2.73;;;18.30;59.50;;;;;;5075168;28;20423;-70
2022/06/26 05:33:11;;;;;;;11.23;3.93;;;18.50;57.70;;;;;;5075029;28;20208;-70
2022/06/26 05:35:37;;;;;;;8.33;2.97;;;18.50;56.50;;;;;;5076540;28;20174;-72
2022/06/26 05:38:03;;;;;;;4.43;2.50;;;18.60;56.00;;;;;;5075534;28;20416;-70
2022/06/26 05:40:29;;;;;;;5.50;2.50;;;18.60;55.30;;;;;;5057717;28;20427;-71
2022/06/26 05:42:57;;;;;;;5.87;2.77;;;18.70;54.00;;;;;;5075177;28;20416;-70
2022/06/26 05:45:22;;;;;;;4.10;2.67;;;18.70;54.10;;;;;;5075101;28;20412;-71
2022/06/26 05:47:48;;;;;;;5.80;2.73;;;18.70;53.70;;;;;;5074999;28;20428;-71
2022/06/26 05:50:14;;;;;;;4.70;2.90;;;18.80;54.80;;;;;;5057292;28;20178;-71
2022/06/26 05:52:40;;;;;;;5.53;3.60;;;19.00;54.30;;;;;;5074910;28;20213;-71
2022/06/26 05:55:06;;;;;;;7.03;3.23;;;19.20;51.60;;;;;;5075505;28;20408;-71
2022/06/26 05:57:32;;;;;;;3.13;2.80;;;19.20;52.00;;;;;;5075214;28;20201;-71
2022/06/26 05:59:57;;;;;;;7.40;3.33;;;19.30;51.50;;;;;;5076336;28;20499;-71
2022/06/26 06:02:23;;;;;;;6.23;2.70;;;19.20;51.50;;;;;;5075297;28;20170;-71
2022/06/26 06:04:49;;;;;;;7.23;3.30;;;19.10;52.70;;;;;;5074766;28;20713;-72
2022/06/26 06:07:14;;;;;;;3.83;2.80;;;19.10;55.30;;;;;;5074636;28;20501;-71
2022/06/26 06:09:40;;;;;;;7.63;3.77;;;19.00;55.70;;;;;;5074934;28;20174;-71
2022/06/26 06:12:06;;;;;;;7.20;3.20;;;19.10;55.60;;;;;;5074023;28;20206;-71
2022/06/26 06:14:31;;;;;;;6.50;3.20;;;18.90;55.10;;;;;;5074530;28;20216;-70
2022/06/26 06:16:57;;;;;;;3.77;3.47;;;18.90;54.40;;;;;;5074298;28;20226;-72
2022/06/26 06:19:23;;;;;;;8.10;4.07;;;18.80;55.50;;;;;;5074315;28;20201;-72
2022/06/26 06:21:48;;;;;;;6.43;3.50;;;18.70;56.00;;;;;;5056498;28;20174;-71
2022/06/26 06:24:14;;;;;;;6.80;4.40;;;18.70;56.80;;;;;;5074648;28;20520;-71
2022/06/26 06:26:39;;;;;;;9.70;4.07;;;18.60;57.10;;;;;;5074180;28;20204;-71
2022/06/26 06:29:05;;;;;;;4.40;3.43;;;18.60;58.20;;;;;;5074395;28;20269;-71
2022/06/26 06:31:30;;;;;;;3.80;3.27;;;18.60;57.10;;;;;;5056691;28;20174;-72
2022/06/26 06:33:56;;;;;;;9.10;3.63;;;18.70;58.00;;;;;;5056224;28;20205;-71
2022/06/26 06:36:22;;;;;;;3.40;3.10;;;18.70;57.70;;;;;;5074409;28;20194;-70
2022/06/26 06:38:47;;;;;;;10.47;3.73;;;18.80;55.10;;;;;;5074555;28;20226;-71
2022/06/26 06:41:13;;;;;;;6.40;3.90;;;19.00;55.40;;;;;;5074208;28;20178;-71
2022/06/26 06:43:39;;;;;;;5.80;3.50;;;19.30;53.60;;;;;;5074311;28;20205;-70
2022/06/26 06:46:04;;;;;;;9.83;3.70;;;19.30;50.90;;;;;;5074273;28;20202;-71
2022/06/26 06:48:30;;;;;;;7.73;4.07;;;19.60;49.90;;;;;;5073921;28;20631;-71
2022/06/26 06:50:55;;;;;;;7.40;3.50;;;19.60;48.30;;;;;;5055845;28;20174;-71
2022/06/26 06:53:21;;;;;;;7.80;3.77;;;19.70;46.80;;;;;;5074049;28;20314;-71
2022/06/26 06:55:47;;;;;;;4.83;3.63;;;19.80;47.60;;;;;;5073580;28;20197;-73
2022/06/26 06:58:13;;;;;;;6.40;3.50;;;19.70;47.10;;;;;;5073602;28;20455;-70
2022/06/26 07:00:38;;;;;;;6.27;3.30;;;19.80;47.30;;;;;;5073761;28;20185;-71
2022/06/26 07:03:05;;;;;;;6.07;3.30;;;19.90;45.20;;;;;;5055210;28;20511;-71
2022/06/26 07:05:32;;;;;;;5.53;3.00;;;20.00;43.30;;;;;;5073317;28;20700;-72
2022/06/26 07:08:00;;;;;;;4.70;3.10;;;20.30;42.10;;;;;;5073263;28;20774;-70
2022/06/26 07:10:25;;;;;;;5.30;3.27;;;20.50;39.80;;;;;;5073404;28;20903;-71
2022/06/26 07:12:52;;;;;;;5.80;3.33;;;20.70;37.90;;;;;;5073197;28;20460;-71
2022/06/26 07:15:18;;;;;;;9.80;3.27;;;20.80;37.50;;;;;;5072972;28;20769;-71
2022/06/26 07:17:43;;;;;;;8.10;3.00;;;20.90;36.70;;;;;;5072866;28;20446;-71
2022/06/26 07:20:10;;;;;;;4.77;2.80;;;20.90;36.80;;;;;;5072812;28;20417;-71
2022/06/26 07:22:35;;;;;;;6.07;3.10;;;21.10;36.10;;;;;;5072806;28;20182;-71
2022/06/26 07:25:01;;;;;;;4.30;2.80;;;21.10;35.50;;;;;;5072772;28;20831;-72
2022/06/26 07:27:26;;;;;;;6.90;2.93;;;21.30;35.80;;;;;;5072625;28;20546;-72
2022/06/26 07:29:52;;;;;;;5.10;3.03;;;21.30;34.50;;;;;;5054732;28;20184;-72
2022/06/26 07:32:18;;;;;;;5.00;2.70;;;21.30;34.40;;;;;;5072538;28;20210;-72
2022/06/26 07:34:43;;;;;;;5.00;2.87;;;21.30;35.10;;;;;;5072827;28;20218;-72
2022/06/26 07:37:09;;;;;;;5.00;2.53;;;21.40;34.10;;;;;;5071735;28;20437;-72
2022/06/26 07:39:35;;;;;;;2.97;2.67;;;21.20;33.50;;;;;;5072768;28;20634;-72
2022/06/26 07:42:00;;;;;;;5.70;3.30;;;21.10;33.90;;;;;;5072158;28;20541;-72
2022/06/26 07:44:26;;;;;;;4.17;3.47;;;21.10;33.60;;;;;;5072485;28;20323;-72
2022/06/26 07:46:51;;;;;;;3.87;2.90;;;21.10;33.90;;;;;;5054300;28;20633;-72
2022/06/26 07:49:17;;;;;;;9.03;3.50;;;21.00;34.40;;;;;;5072434;28;20200;-72
2022/06/26 07:51:43;;;;;;;6.47;2.63;;;21.10;34.00;;;;;;5072292;28;20633;-72
2022/06/26 07:54:09;;;;;;;3.50;2.73;;;21.10;33.80;;;;;;5072153;28;20269;-72
2022/06/26 07:56:35;;;;;;;4.00;2.37;;;21.40;32.20;;;;;;5072286;28;20187;-72
2022/06/26 07:59:01;;;;;;;5.60;3.07;;;21.60;30.80;;;;;;5072189;28;20502;-72
2022/06/26 08:01:27;;;;;;;6.63;2.73;;;21.70;31.10;;;;;;5054238;28;20218;-72
2022/06/26 08:03:53;;;;;;;3.30;2.60;;;21.60;30.70;;;;;;5054527;28;20180;-72
2022/06/26 08:06:19;;;;;;;5.83;2.57;;;21.60;31.80;;;;;;5071905;28;20195;-72
2022/06/26 08:08:45;;;;;;;3.93;3.00;;;21.70;30.70;;;;;;5071973;28;20409;-72
2022/06/26 08:11:10;;;;;;;4.13;2.37;;;21.70;30.40;;;;;;5053618;28;20440;-72
2022/06/26 08:13:36;;;;;;;6.87;2.43;;;21.90;28.90;;;;;;5072389;28;20233;-71
2022/06/26 08:16:01;;;;;;;5.73;2.50;;;22.00;28.00;;;;;;5071846;28;20607;-73
2022/06/26 08:18:27;;;;;;;5.27;2.60;;;22.30;26.60;;;;;;5072459;28;20634;-71
2022/06/26 08:20:53;;;;;;;3.00;2.13;;;22.70;26.00;;;;;;5071925;28;20178;-71
2022/06/26 08:23:18;;;;;;;4.50;2.30;;;23.10;25.10;;;;;;5072382;28;20181;-71
2022/06/26 08:25:44;;;;;;;3.20;1.80;;;23.40;23.50;;;;;;5071841;28;20274;-71
2022/06/26 08:28:10;;;;;;;2.70;1.80;;;23.20;24.50;;;;;;5071865;28;20175;-71
2022/06/26 08:30:35;;;;;;;2.87;1.80;;;22.90;24.70;;;;;;5071861;28;20178;-72
2022/06/26 08:33:01;;;;;;;9.00;2.53;;;23.10;25.40;;;;;;5071552;28;20231;-72
2022/06/26 08:35:28;;;;;;;4.40;2.10;;;22.70;25.50;;;;;;5071959;28;20178;-71
2022/06/26 08:37:55;;;;;;;2.97;2.70;;;22.60;25.40;;;;;;5073312;28;20176;-71
2022/06/26 08:40:21;;;;;;;8.20;2.30;;;22.30;26.20;;;;;;5061972;28;20427;-71
2022/06/26 08:42:49;;;;;;;2.67;2.20;;;22.50;26.40;;;;;;5079557;28;20564;-73
2022/06/26 08:45:21;;;;;;;4.03;2.50;;;22.50;25.10;;;;;;5081347;28;20421;-71
2022/06/26 08:47:50;;;;;;;3.47;2.30;;;22.50;24.70;;;;;;5078669;28;20439;-72
2022/06/26 08:50:19;;;;;;;3.90;2.10;;;22.10;26.20;;;;;;5080133;28;20948;-71
2022/06/26 08:52:45;;;;;;;2.50;2.30;;;22.00;27.20;;;;;;5082324;28;20620;-72
2022/06/26 08:55:11;;;;;;;2.23;1.93;;;22.30;27.30;;;;;;5082388;28;20488;-70
2022/06/26 08:57:38;;;;;;;3.87;1.93;;;22.70;24.60;;;;;;5082428;28;20479;-73
2022/06/26 09:00:04;;;;;;;1.97;1.70;;;23.00;23.00;;;;;;5080853;28;20446;-71
2022/06/26 09:02:30;;;;;;;9.80;2.20;;;23.40;21.70;;;;;;5081922;28;20415;-71
2022/06/26 09:04:56;;;;;;;4.87;1.83;;;23.20;22.40;;;;;;5082855;28;20501;-72
2022/06/26 09:07:22;;;;;;;3.53;1.90;;;23.10;22.30;;;;;;5084236;28;20207;-72
2022/06/26 09:09:48;;;;;;;5.23;1.93;;;23.00;23.80;;;;;;5084226;28;20401;-73
2022/06/26 09:12:13;;;;;;;8.57;2.50;;;23.10;22.90;;;;;;5058584;28;20921;-73
2022/06/26 09:14:39;;;;;;;6.57;2.40;;;23.30;21.70;;;;;;5076691;28;20583;-72
2022/06/26 09:17:05;;;;;;;2.70;1.87;;;23.30;21.90;;;;;;5076146;28;20186;-73
2022/06/26 09:19:36;;;;;;;2.13;1.83;;;23.50;20.90;;;;;;5076098;28;20181;-71
2022/06/26 09:22:13;;;;;;;2.90;2.30;;;23.40;21.40;;;;;;5075704;28;20443;-71
2022/06/26 09:24:50;;;;;;;6.97;1.80;;;23.60;20.40;;;;;;5075623;28;20408;-73
2022/06/26 09:27:16;;;;;;;3.10;1.90;;;23.70;21.40;;;;;;5075556;28;20575;-71
2022/06/26 09:29:48;;;;;;;2.10;1.80;;;23.80;20.20;;;;;;5075679;28;20427;-73
2022/06/26 09:32:15;;;;;;;3.10;2.00;;;24.20;19.30;;;;;;5075266;28;20213;-73
2022/06/26 09:34:48;;;;;;;7.93;2.30;;;24.50;19.10;;;;;;5075747;28;20490;-73
2022/06/26 09:37:14;;;;;;;2.40;1.63;;;24.80;18.90;;;;;;5056979;28;20843;-73
2022/06/26 09:39:42;;;;;;;2.07;1.80;;;24.90;16.30;;;;;;5075332;28;20400;-71
2022/06/26 09:42:17;;;;;;;2.70;1.80;;;24.90;17.00;;;;;;5074974;28;20405;-72
2022/06/26 09:44:44;;;;;;;4.53;2.00;;;25.00;14.90;;;;;;5075350;28;20442;-72
2022/06/26 09:47:26;;;;;;;1.43;1.33;;;25.20;15.10;;;;;;5074805;28;20457;-72
2022/06/26 09:49:53;;;;;;;2.43;1.80;;;25.20;14.60;;;;;;5075007;28;20400;-72
2022/06/26 09:52:22;;;;;;;3.40;2.20;;;25.20;15.50;;;;;;5056673;28;20452;-71
2022/06/26 09:54:47;;;;;;;6.30;2.33;;;25.10;15.50;;;;;;5075442;28;20487;-71
2022/06/26 09:57:14;;;;;;;2.90;1.77;;;25.00;16.20;;;;;;5074692;28;21012;-72
2022/06/26 09:59:40;;;;;;;1.80;1.70;;;25.00;14.30;;;;;;5074688;28;20612;-73
2022/06/26 10:07:40;;;;;;;3.07;1.73;;;25.20;14.90;;;;;;5074643;28;20950;-71
2022/06/26 10:10:06;;;;;;;3.20;2.07;;;25.30;14.90;;;;;;5074250;28;20419;-72
2022/06/26 10:12:34;;;;;;;2.80;2.00;;;25.20;14.70;;;;;;5074311;28;20217;-72
2022/06/26 10:15:00;;;;;;;4.00;1.90;;;25.10;15.80;;;;;;5074604;28;20473;-71
2022/06/26 10:17:51;;;;;;;8.53;2.23;;;25.00;15.30;;;;;;5074292;28;20436;-73
2022/06/26 10:20:21;;;;;;;2.27;1.50;;;25.40;15.20;;;;;;5074371;28;20916;-73
2022/06/26 10:22:47;;;;;;;5.60;2.47;;;25.90;14.40;;;;;;5074382;28;20409;-73
2022/06/26 10:25:26;;;;;;;3.37;2.00;;;26.20;13.90;;;;;;5074759;28;20415;-71
2022/06/26 10:27:52;;;;;;;4.30;2.50;;;26.20;14.00;;;;;;5040462;28;20185;-72
2022/06/26 10:30:24;;;;;;;2.10;1.60;;;26.30;13.00;;;;;;5074589;28;20772;-72
2022/06/26 10:33:20;;;;;;;2.90;1.80;;;26.30;11.30;;;;;;5074592;28;20248;-72
2022/06/26 10:35:48;;;;;;;2.60;1.93;;;26.30;11.70;;;;;;5075042;28;20753;-71
2022/06/26 10:38:23;;;;;;;2.10;1.43;;;26.40;11.80;;;;;;5074855;28;20815;-72
2022/06/26 10:44:12;;;;;;;1.60;1.50;;;26.40;10.30;;;;;;5074927;28;20431;-71
2022/06/26 10:46:44;;;;;;;8.13;1.60;;;26.60;9.80;;;;;;5074938;28;20517;-73
2022/06/26 10:49:10;;;;;;;2.20;1.50;;;26.90;9.70;;;;;;5076111;28;20401;-72
2022/06/26 10:51:40;;;;;;;2.93;1.50;;;26.70;9.60;;;;;;5076797;28;20478;-72
2022/06/26 10:54:29;;;;;;;1.30;1.10;;;26.70;9.30;;;;;;5076595;28;20269;-72
2022/06/26 10:57:13;;;;;;;2.37;1.53;;;26.80;9.40;;;;;;5075967;28;20523;-72
2022/06/26 10:59:41;;;;;;;3.83;1.60;;;26.90;9.10;;;;;;5075669;28;20430;-72
2022/06/26 11:02:09;;;;;;;3.60;1.83;;;26.90;9.10;;;;;;5055945;28;20420;-72
2022/06/26 11:04:47;;;;;;;2.63;1.70;;;27.20;10.10;;;;;;5074328;28;20507;-73
2022/06/26 11:07:19;;;;;;;3.43;1.47;;;27.40;9.40;;;;;;5073846;28;20420;-72
2022/06/26 11:09:45;;;;;;;2.33;1.73;;;27.10;9.90;;;;;;5073616;28;20771;-74
2022/06/26 11:12:11;;;;;;;3.20;1.80;;;27.00;9.50;;;;;;5072302;28;20409;-72
2022/06/26 11:14:36;;;;;;;4.30;1.83;;;26.80;9.70;;;;;;5073656;28;20415;-74
2022/06/26 11:17:03;;;;;;;2.50;1.60;;;26.90;9.60;;;;;;5073215;28;20191;-73
2022/06/26 11:19:31;;;;;;;3.07;1.70;;;27.00;10.60;;;;;;5073674;28;20170;-71
2022/06/26 11:22:08;;;;;;;2.83;1.60;;;26.90;10.70;;;;;;5073409;28;20479;-72
2022/06/26 11:24:34;;;;;;;4.50;3.43;;;27.10;10.50;;;;;;5073223;28;20470;-72
2022/06/26 11:27:00;;;;;;;3.90;3.07;;;26.80;10.70;;;;;;5073011;28;20416;-73
2022/06/26 11:29:27;;;;;;;3.53;2.70;;;26.50;11.60;;;;;;5072991;28;20553;-72
2022/06/26 11:31:53;;;;;;;2.37;1.70;;;26.40;11.50;;;;;;5072985;28;20170;-72
2022/06/26 11:34:20;;;;;;;3.83;2.67;;;26.30;11.40;;;;;;5073292;28;20471;-72
2022/06/26 11:36:50;;;;;;;2.73;2.50;;;26.20;11.50;;;;;;5054845;28;20464;-71
2022/06/26 11:39:16;;;;;;;4.17;2.80;;;26.20;11.90;;;;;;5073088;28;20433;-72
2022/06/26 11:41:43;;;;;;;2.07;1.57;;;26.00;11.80;;;;;;5072517;28;20403;-73
2022/06/26 11:44:08;;;;;;;5.33;2.30;;;26.00;11.40;;;;;;5072718;28;20477;-72
2022/06/26 11:46:34;;;;;;;2.63;2.30;;;25.80;12.00;;;;;;5054613;28;20452;-71
2022/06/26 11:49:00;;;;;;;4.40;2.03;;;25.60;12.50;;;;;;5073034;28;20195;-72
2022/06/26 11:51:30;;;;;;;6.40;3.37;;;25.30;12.80;;;;;;5054958;28;20173;-72
2022/06/26 11:53:55;;;;;;;5.20;3.30;;;25.10;14.20;;;;;;5072626;28;20211;-73
2022/06/26 11:56:29;;;;;;;6.93;2.87;;;24.80;15.00;;;;;;5072875;28;20432;-75
2022/06/26 11:58:57;;;;;;;4.40;3.70;;;24.50;15.20;;;;;;5072984;28;20170;-72
2022/06/26 12:01:36;;;;;;;4.60;3.20;;;24.30;16.60;;;;;;5072997;28;20412;-71
2022/06/26 12:04:03;;;;;;;4.37;1.97;;;24.20;17.90;;;;;;5073114;28;20921;-73
2022/06/26 12:06:40;;;;;;;7.83;3.20;;;23.90;18.30;;;;;;5074849;28;20786;-73
2022/06/26 12:09:20;;;;;;;3.10;2.30;;;23.60;19.00;;;;;;5075035;28;20921;-72
2022/06/26 12:11:48;;;;;;;2.90;2.03;;;23.40;19.90;;;;;;5073736;28;20550;-72
2022/06/26 12:14:17;;;;;;;6.43;1.93;;;23.40;19.60;;;;;;5073394;28;20465;-72
2022/06/26 12:16:45;;;;;;;8.67;4.70;;;23.40;20.60;;;;;;5074821;28;20415;-73
2022/06/26 12:19:11;;;;;;;9.40;5.20;;;23.50;21.60;;;;;;5074549;28;20764;-72
2022/06/26 12:21:37;;;;;;;3.70;2.57;;;23.50;20.50;;;;;;5073967;28;20413;-73
2022/06/26 12:24:13;;;;;;;5.50;2.47;;;23.60;19.80;;;;;;5057040;28;20194;-72
2022/06/26 12:26:39;;;;;;;10.30;3.93;;;24.00;20.10;;;;;;5075549;28;20204;-72
2022/06/26 12:29:11;;;;;;;5.10;2.60;;;23.80;19.90;;;;;;5074102;28;20416;-72
2022/06/26 12:31:37;;;;;;;3.07;2.20;;;23.90;18.90;;;;;;5074381;28;20413;-72
2022/06/26 12:34:04;;;;;;;6.67;2.70;;;24.20;19.30;;;;;;5073880;28;20531;-71
2022/06/26 12:36:30;;;;;;;8.27;3.00;;;24.50;18.60;;;;;;5073923;28;20432;-72
2022/06/26 12:38:56;;;;;;;5.37;2.33;;;24.40;17.40;;;;;;5074134;28;20504;-74
2022/06/26 12:41:22;;;;;;;4.73;3.43;;;24.70;17.60;;;;;;5055632;28;20448;-73
2022/06/26 12:43:51;;;;;;;3.83;2.57;;;24.80;16.30;;;;;;5055881;28;20308;-72
2022/06/26 12:46:17;;;;;;;3.23;2.20;;;24.40;17.50;;;;;;5074130;28;20251;-71
2022/06/26 12:48:43;;;;;;;5.43;2.43;;;24.00;17.40;;;;;;5073069;28;20488;-72
2022/06/26 12:51:09;;;;;;;7.30;2.70;;;23.90;18.20;;;;;;5072939;28;20826;-72
2022/06/26 12:53:35;;;;;;;6.53;2.37;;;24.00;19.20;;;;;;5072983;28;20547;-71